Time;durP1;ratioP1;P1;durP2;ratioP2;P2;SDS_P1;SDS_P2;PMS_P1;PMS_P2;Temp;Humidity;BMP_temperature;BMP_pressure;BME280_temperature;BME280_humidity;BME280_pressure;Samples;Min_cycle;Max_cycle;Signal;HPM_P1;HPM_P2
2022/08/05 00:00:19;;;;;;;3.22;2.92;;;;;;;14.96;67.85;95785.80;1779304;80;21007;-66
2022/08/05 00:02:48;;;;;;;2.72;2.52;;;;;;;14.90;67.79;95787.34;1779317;81;21015;-66
2022/08/05 00:05:15;;;;;;;5.65;2.90;;;;;;;14.85;67.86;95788.81;1779385;80;20979;-66
2022/08/05 00:07:42;;;;;;;3.37;3.05;;;;;;;14.80;67.40;95781.91;1779454;80;21019;-66
2022/08/05 00:10:09;;;;;;;2.92;2.72;;;;;;;14.83;67.42;95785.80;1779357;81;21022;-66
2022/08/05 00:12:35;;;;;;;3.45;2.80;;;;;;;14.95;67.00;95785.40;1779463;80;20981;-66
2022/08/05 00:15:03;;;;;;;5.12;3.05;;;;;;;15.03;66.47;95781.16;1779440;81;20991;-66
2022/08/05 00:17:30;;;;;;;3.15;2.85;;;;;;;15.03;68.13;95775.38;1779505;80;21053;-66
2022/08/05 00:19:57;;;;;;;2.98;2.70;;;;;;;14.90;68.66;95776.24;1779248;80;21027;-66
2022/08/05 00:22:23;;;;;;;3.37;3.00;;;;;;;14.80;69.42;95774.81;1779298;81;21084;-66
2022/08/05 00:24:50;;;;;;;4.37;3.02;;;;;;;14.75;68.88;95775.88;1779160;80;21026;-66
2022/08/05 00:27:17;;;;;;;3.10;2.80;;;;;;;14.66;69.12;95777.03;1779626;81;21030;-66
2022/08/05 00:29:44;;;;;;;3.20;2.90;;;;;;;14.59;69.76;95775.47;1779310;80;21066;-66
2022/08/05 00:32:11;;;;;;;3.22;2.75;;;;;;;14.63;69.52;95777.98;1779091;80;20988;-66
2022/08/05 00:34:44;;;;;;;3.80;3.10;;;;;;;14.59;69.45;95776.80;1779475;81;21476;-66
2022/08/05 00:37:10;;;;;;;3.97;3.23;;;;;;;14.49;69.74;95766.45;1779640;80;21525;-66
2022/08/05 00:39:37;;;;;;;3.12;2.87;;;;;;;14.49;69.48;95769.58;1779467;80;20998;-66
2022/08/05 00:42:05;;;;;;;3.62;3.12;;;;;;;14.40;70.70;95769.39;1779292;81;21087;-66
2022/08/05 00:44:31;;;;;;;3.50;3.20;;;;;;;14.37;70.97;95768.16;1779331;81;21465;-66
2022/08/05 00:46:58;;;;;;;3.77;3.10;;;;;;;14.31;70.58;95763.48;1779333;80;21002;-66
2022/08/05 00:49:25;;;;;;;3.22;2.87;;;;;;;14.26;70.15;95768.92;1779417;81;20956;-66
2022/08/05 00:51:51;;;;;;;3.10;2.80;;;;;;;14.33;70.00;95767.83;1779552;80;20959;-66
2022/08/05 00:54:18;;;;;;;3.75;2.80;;;;;;;14.33;71.40;95768.30;1779388;80;21010;-66
2022/08/05 00:56:45;;;;;;;3.85;3.05;;;;;;;14.27;71.83;95768.89;1779456;81;20983;-66
2022/08/05 00:59:12;;;;;;;3.10;2.80;;;;;;;14.25;71.70;95764.55;1779614;80;21011;-66
2022/08/05 01:01:39;;;;;;;3.80;2.92;;;;;;;14.18;71.64;95770.48;1779448;80;21035;-66
2022/08/05 01:04:06;;;;;;;3.12;2.83;;;;;;;14.15;70.91;95765.74;1779563;80;20987;-66
2022/08/05 01:06:32;;;;;;;4.15;2.80;;;;;;;14.18;71.11;95761.20;1779389;81;21007;-66
2022/08/05 01:08:59;;;;;;;3.55;3.25;;;;;;;14.29;70.84;95759.57;1779360;81;21042;-66
2022/08/05 01:11:35;;;;;;;3.15;2.90;;;;;;;14.38;71.62;95757.94;1779454;80;20998;-66
2022/08/05 01:14:25;;;;;;;2.85;2.62;;;;;;;14.38;71.33;95759.27;1779446;81;20943;-66
2022/08/05 01:17:03;;;;;;;3.77;2.83;;;;;;;14.43;70.99;95759.99;1779408;80;21532;-66
2022/08/05 01:19:53;;;;;;;3.10;2.72;;;;;;;14.50;70.81;95746.08;1781484;80;21086;-66
2022/08/05 01:22:57;;;;;;;3.15;2.62;;;;;;;14.51;70.80;95750.45;1782306;80;21018;-66
2022/08/05 01:25:30;;;;;;;;;;;;;;;14.38;71.03;95743.80;1787336;80;21445;-66
2022/08/05 01:28:17;;;;;;;3.08;2.50;;;;;;;14.25;71.45;95748.16;1784018;80;20397;-66
2022/08/05 01:30:52;;;;;;;2.95;2.70;;;;;;;14.20;71.25;95747.43;1785190;80;21010;-66
2022/08/05 01:33:23;;;;;;;4.90;3.00;;;;;;;14.21;72.12;95751.84;1783608;80;21094;-66
2022/08/05 01:35:53;;;;;;;3.00;2.80;;;;;;;14.21;72.34;95754.50;1785004;80;21014;-66
2022/08/05 01:38:22;;;;;;;3.22;2.62;;;;;;;14.21;70.97;95744.31;1785056;80;21062;-66
2022/08/05 01:40:49;;;;;;;3.33;3.03;;;;;;;14.18;71.66;95748.39;1784824;80;21065;-66
2022/08/05 01:43:18;;;;;;;4.83;3.00;;;;;;;14.13;72.57;95750.31;1785104;80;20955;-66
2022/08/05 01:45:45;;;;;;;4.67;3.08;;;;;;;14.14;72.05;95750.75;1785104;80;21034;-66
2022/08/05 01:48:15;;;;;;;3.52;2.58;;;;;;;14.10;72.75;95750.42;1784982;80;21525;-66
2022/08/05 01:50:45;;;;;;;5.12;3.80;;;;;;;14.03;73.30;95751.05;1785093;80;21484;-66
2022/08/05 01:53:13;;;;;;;3.90;3.50;;;;;;;14.04;72.86;95749.69;1784898;80;21026;-66
2022/08/05 01:55:43;;;;;;;3.55;3.00;;;;;;;14.10;72.62;95751.74;1784591;80;21026;-66
2022/08/05 01:58:13;;;;;;;4.05;3.30;;;;;;;14.11;72.63;95750.81;1785116;80;21030;-66
2022/08/05 02:00:43;;;;;;;3.67;3.05;;;;;;;14.06;72.30;95739.91;1785026;80;21496;-66
2022/08/05 02:03:35;;;;;;;3.42;3.12;;;;;;;14.02;72.42;95746.66;1784914;80;20986;-66
2022/08/05 02:06:06;;;;;;;4.72;3.60;;;;;;;13.97;72.73;95746.80;1784236;80;21042;-66
2022/08/05 02:08:33;;;;;;;3.50;2.80;;;;;;;13.96;73.15;95744.17;1785041;80;21075;-66
2022/08/05 02:11:11;;;;;;;3.40;2.98;;;;;;;13.89;73.51;95739.53;1784965;80;20986;-66
2022/08/05 02:14:04;;;;;;;3.90;2.85;;;;;;;13.82;73.28;95741.48;1785099;80;21389;-66
2022/08/05 02:16:48;;;;;;;3.20;2.90;;;;;;;13.79;73.72;95740.25;1785213;80;21038;-66
2022/08/05 02:19:37;;;;;;;3.25;2.95;;;;;;;13.87;72.97;95736.51;1785088;80;21025;-66
2022/08/05 02:22:24;;;;;;;3.67;2.90;;;;;;;13.81;73.97;95733.59;1785073;80;21533;-66
2022/08/05 02:25:01;;;;;;;5.05;2.95;;;;;;;13.79;73.85;95739.38;1784378;80;21034;-66
2022/08/05 02:27:29;;;;;;;3.72;3.35;;;;;;;13.83;74.03;95729.97;1753324;80;21521;-66
2022/08/05 02:29:58;;;;;;;7.78;3.52;;;;;;;13.85;73.73;95725.94;1785098;80;21049;-66
2022/08/05 02:32:26;;;;;;;3.35;3.05;;;;;;;13.87;74.08;95725.44;1784822;80;20995;-66
2022/08/05 02:34:54;;;;;;;4.37;2.95;;;;;;;13.83;74.42;95723.34;1785059;80;21007;-66
2022/08/05 02:37:23;;;;;;;3.30;2.87;;;;;;;13.82;74.52;95723.38;1785246;80;21078;-66
2022/08/05 02:39:50;;;;;;;3.25;2.95;;;;;;;13.80;74.07;95727.84;1784952;80;20995;-66
2022/08/05 02:42:19;;;;;;;2.90;2.70;;;;;;;13.84;73.88;95725.53;1785155;80;20966;-66
2022/08/05 02:44:47;;;;;;;3.00;2.80;;;;;;;13.91;74.05;95720.47;1785027;80;20998;-66
2022/08/05 02:47:15;;;;;;;3.70;2.87;;;;;;;13.90;74.62;95721.36;1785089;80;21029;-66
2022/08/05 02:49:43;;;;;;;3.30;3.08;;;;;;;13.92;73.74;95721.33;1785134;80;21049;-66
2022/08/05 02:52:17;;;;;;;2.98;2.77;;;;;;;13.85;74.59;95721.48;1784593;80;21014;-66
2022/08/05 02:54:45;;;;;;;3.45;3.15;;;;;;;13.81;73.60;95725.63;1784883;80;21022;-66
2022/08/05 02:57:16;;;;;;;3.35;2.80;;;;;;;13.66;74.60;95725.61;1784936;80;21517;-66
2022/08/05 02:59:47;;;;;;;3.67;3.20;;;;;;;13.69;73.79;95719.34;1785120;80;21011;-66
2022/08/05 03:02:17;;;;;;;4.17;3.52;;;;;;;13.78;74.68;95717.30;1785001;80;21500;-66
2022/08/05 03:04:45;;;;;;;3.50;3.20;;;;;;;13.87;74.62;95719.27;1785071;80;21034;-66
2022/08/05 03:07:13;;;;;;;3.87;3.12;;;;;;;13.82;74.46;95715.42;1785254;80;21528;-66
2022/08/05 03:09:43;;;;;;;3.37;3.05;;;;;;;13.79;73.84;95716.38;1784833;80;20981;-66
2022/08/05 03:12:30;;;;;;;3.37;3.08;;;;;;;13.74;73.70;95720.95;1785211;80;20963;-66
2022/08/05 03:14:58;;;;;;;3.65;3.33;;;;;;;13.74;74.26;95718.77;1784948;80;21022;-66
2022/08/05 03:17:24;;;;;;;5.78;3.42;;;;;;;13.70;75.20;95721.94;1785053;80;21048;-66
2022/08/05 03:19:51;;;;;;;4.03;3.20;;;;;;;13.73;74.34;95715.21;1783128;80;21050;-66
2022/08/05 03:22:18;;;;;;;3.65;3.30;;;;;;;13.72;74.86;95718.80;1779365;80;20987;-66
2022/08/05 03:24:47;;;;;;;3.40;3.00;;;;;;;13.63;74.46;95717.72;1779451;81;21049;-66
2022/08/05 03:27:14;;;;;;;3.20;2.90;;;;;;;13.54;74.87;95718.86;1779316;80;21473;-66
2022/08/05 03:29:41;;;;;;;3.15;2.90;;;;;;;13.49;75.93;95718.13;1779589;80;21030;-66
2022/08/05 03:32:09;;;;;;;5.55;3.67;;;;;;;13.46;76.50;95718.68;1779195;81;21102;-66
2022/08/05 03:34:37;;;;;;;3.62;2.70;;;;;;;13.49;75.83;95715.94;1779167;80;21474;-66
2022/08/05 03:37:05;;;;;;;3.62;3.17;;;;;;;13.52;76.21;95719.82;1779609;80;20998;-66
2022/08/05 03:39:31;;;;;;;3.75;3.42;;;;;;;13.55;76.25;95724.56;1779396;81;21010;-66
2022/08/05 03:41:58;;;;;;;3.47;3.17;;;;;;;13.58;75.46;95724.94;1778853;80;21061;-66
2022/08/05 03:44:25;;;;;;;3.52;3.20;;;;;;;13.58;75.10;95728.48;1779573;81;21029;-66
2022/08/05 03:46:52;;;;;;;3.65;3.27;;;;;;;13.66;74.70;95729.59;1779363;81;20999;-66
2022/08/05 03:49:19;;;;;;;4.65;3.33;;;;;;;13.66;74.80;95723.39;1779271;80;21023;-66
2022/08/05 03:51:59;;;;;;;3.13;2.80;;;;;;;13.72;74.92;95724.09;1779311;81;21010;-66
2022/08/05 03:54:46;;;;;;;3.40;3.12;;;;;;;13.82;75.17;95722.05;1780016;80;21493;-66
2022/08/05 03:57:14;;;;;;;3.50;3.20;;;;;;;13.82;75.54;95718.07;1761813;81;21023;-66
2022/08/05 03:59:46;;;;;;;4.15;3.30;;;;;;;13.90;75.85;95724.02;1779459;81;20983;-66
2022/08/05 04:02:16;;;;;;;6.15;3.47;;;;;;;13.98;75.45;95726.44;1778964;81;21074;-66
2022/08/05 04:04:43;;;;;;;3.75;3.40;;;;;;;14.09;75.71;95719.50;1779435;80;21094;-66
2022/08/05 04:07:10;;;;;;;3.12;2.87;;;;;;;14.24;74.95;95722.55;1779451;81;21496;-66
2022/08/05 04:09:37;;;;;;;6.47;3.33;;;;;;;14.39;74.44;95721.64;1779387;81;21090;-66
2022/08/05 04:12:06;;;;;;;4.12;3.50;;;;;;;14.45;74.35;95717.48;1779089;81;21106;-66
2022/08/05 04:14:32;;;;;;;3.58;3.20;;;;;;;14.56;74.22;95717.16;1751339;81;21421;-66
2022/08/05 04:16:59;;;;;;;3.58;3.27;;;;;;;14.70;73.58;95723.77;1779229;81;20975;-66
2022/08/05 04:19:28;;;;;;;5.20;3.22;;;;;;;14.81;73.19;95719.42;1779629;80;20979;-66
2022/08/05 04:21:55;;;;;;;4.25;3.70;;;;;;;14.84;72.89;95716.69;1784968;80;21030;-66
2022/08/05 04:24:21;;;;;;;6.97;4.17;;;;;;;14.95;72.27;95717.65;1785049;80;21074;-66
2022/08/05 04:26:48;;;;;;;4.03;3.52;;;;;;;15.03;72.68;95720.05;1785057;80;21022;-66
2022/08/05 04:29:15;;;;;;;5.10;3.50;;;;;;;15.07;73.22;95715.91;1784811;80;21014;-66
2022/08/05 04:31:42;;;;;;;6.12;3.75;;;;;;;15.09;73.07;95717.16;1784940;80;21050;-66
2022/08/05 04:34:09;;;;;;;4.30;3.87;;;;;;;15.16;73.08;95712.05;1784974;80;21500;-66
2022/08/05 04:36:36;;;;;;;3.85;3.55;;;;;;;15.31;72.40;95711.52;1785045;80;21038;-66
2022/08/05 04:39:03;;;;;;;4.72;3.77;;;;;;;15.43;72.79;95712.88;1784895;80;20983;-66
2022/08/05 04:41:30;;;;;;;5.45;3.75;;;;;;;15.53;72.30;95710.29;1784800;80;21010;-66
2022/08/05 04:43:57;;;;;;;4.30;3.90;;;;;;;15.65;71.63;95709.42;1784953;80;21089;-66
2022/08/05 04:46:24;;;;;;;5.53;3.52;;;;;;;15.80;71.18;95714.24;1784632;80;21023;-66
2022/08/05 04:48:50;;;;;;;4.70;4.08;;;;;;;15.94;71.26;95710.58;1784994;80;20979;-66
2022/08/05 04:51:17;;;;;;;4.78;4.35;;;;;;;16.03;71.00;95713.38;1784958;80;20998;-66
2022/08/05 04:53:44;;;;;;;6.67;4.60;;;;;;;16.17;70.67;95714.16;1785043;80;21050;-66
2022/08/05 04:56:13;;;;;;;4.67;3.58;;;;;;;16.29;70.16;95711.02;1784550;80;21723;-66
2022/08/05 04:58:40;;;;;;;4.15;3.85;;;;;;;16.39;69.98;95721.72;1784829;80;21046;-66
2022/08/05 05:01:07;;;;;;;3.90;3.55;;;;;;;16.49;70.18;95708.05;1784635;80;21065;-66
2022/08/05 05:03:34;;;;;;;4.60;4.20;;;;;;;16.59;70.02;95707.61;1785003;80;20971;-66
2022/08/05 05:06:01;;;;;;;4.17;3.72;;;;;;;16.71;70.03;95710.25;1784481;80;21501;-66
2022/08/05 05:08:28;;;;;;;6.85;3.77;;;;;;;16.83;69.87;95704.45;1784942;80;21010;-66
2022/08/05 05:10:55;;;;;;;5.45;3.95;;;;;;;16.93;69.41;95700.91;1784937;80;20999;-66
2022/08/05 05:13:21;;;;;;;3.75;3.45;;;;;;;17.05;69.00;95699.53;1784851;80;20971;-66
2022/08/05 05:15:48;;;;;;;5.22;3.98;;;;;;;17.18;68.92;95702.55;1784927;80;21082;-66
2022/08/05 05:18:16;;;;;;;5.95;3.83;;;;;;;17.29;68.18;95707.83;1784680;80;21002;-66
2022/08/05 05:20:44;;;;;;;4.83;4.00;;;;;;;17.41;68.61;95701.11;1784758;80;21085;-66
2022/08/05 05:23:12;;;;;;;5.78;3.92;;;;;;;17.56;68.32;95701.34;1784893;80;21474;-66
2022/08/05 05:25:43;;;;;;;6.20;4.05;;;;;;;17.67;68.19;95694.60;1785183;80;20993;-66
2022/08/05 05:28:11;;;;;;;6.85;4.17;;;;;;;17.82;67.81;95694.42;1784710;80;21002;-66
2022/08/05 05:30:38;;;;;;;5.55;4.00;;;;;;;17.97;67.54;95688.84;1784797;80;21021;-66
2022/08/05 05:33:07;;;;;;;4.53;4.00;;;;;;;18.12;67.41;95690.80;1784834;80;20995;-66
2022/08/05 05:35:34;;;;;;;4.35;3.90;;;;;;;18.27;66.96;95692.33;1785074;80;21035;-66
2022/08/05 05:38:03;;;;;;;5.78;4.03;;;;;;;18.41;66.22;95689.02;1784611;80;21019;-66
2022/08/05 05:40:31;;;;;;;4.75;3.77;;;;;;;18.57;65.85;95684.66;1784839;80;21018;-66
2022/08/05 05:42:58;;;;;;;4.30;3.87;;;;;;;18.71;65.05;95692.02;1784622;80;21516;-66
2022/08/05 05:45:26;;;;;;;4.33;3.77;;;;;;;18.88;64.55;95692.56;1784862;80;21455;-66
2022/08/05 05:47:52;;;;;;;4.12;3.60;;;;;;;18.99;64.46;95687.53;1784930;80;20999;-66
2022/08/05 05:50:19;;;;;;;3.90;3.60;;;;;;;19.19;62.51;95692.73;1784957;80;20991;-66
2022/08/05 05:52:47;;;;;;;4.85;3.90;;;;;;;19.35;62.94;95693.28;1784815;80;21025;-66
2022/08/05 05:55:16;;;;;;;4.55;4.25;;;;;;;19.50;62.56;95695.16;1785027;80;21014;-66
2022/08/05 05:57:45;;;;;;;4.70;4.30;;;;;;;19.64;62.41;95689.95;1784734;80;21015;-66
2022/08/05 06:00:16;;;;;;;5.17;3.83;;;;;;;19.83;61.83;95689.89;1784842;80;21477;-66
2022/08/05 06:02:44;;;;;;;4.03;3.72;;;;;;;19.98;60.99;95692.22;1784755;80;21007;-66
2022/08/05 06:05:13;;;;;;;3.77;3.45;;;;;;;20.14;60.11;95688.22;1785035;80;21014;-66
2022/08/05 06:07:41;;;;;;;4.35;3.67;;;;;;;20.30;59.86;95676.17;1784571;80;21032;-66
2022/08/05 06:10:09;;;;;;;4.08;3.65;;;;;;;20.47;59.21;95681.94;1784937;80;20962;-66
2022/08/05 06:12:37;;;;;;;4.85;3.47;;;;;;;20.63;58.06;95681.48;1784691;80;21481;-66
2022/08/05 06:15:06;;;;;;;3.90;3.60;;;;;;;20.80;57.59;95682.34;1784744;80;21457;-66
2022/08/05 06:17:33;;;;;;;3.70;3.45;;;;;;;20.94;57.74;95672.55;1758867;80;21540;-66
2022/08/05 06:20:00;;;;;;;9.23;3.40;;;;;;;21.11;56.95;95674.22;1784902;80;21042;-66
2022/08/05 06:22:33;;;;;;;3.52;3.25;;;;;;;21.27;56.87;95672.86;1784680;80;20986;-66
2022/08/05 06:25:03;;;;;;;5.55;3.52;;;;;;;21.42;53.14;95676.48;1785254;80;21451;-66
2022/08/05 06:27:30;;;;;;;3.52;3.20;;;;;;;21.58;53.87;95672.37;1784303;80;21011;-66
2022/08/05 06:29:56;;;;;;;4.20;3.50;;;;;;;21.75;53.86;95671.36;1785074;80;21050;-66
2022/08/05 06:32:23;;;;;;;4.12;3.37;;;;;;;21.92;54.01;95675.66;1785066;80;20967;-66
2022/08/05 06:34:49;;;;;;;3.60;3.30;;;;;;;22.07;53.59;95673.84;1785079;80;21469;-66
2022/08/05 06:37:16;;;;;;;5.80;3.83;;;;;;;22.24;53.70;95676.37;1784620;80;21007;-67
2022/08/05 06:39:43;;;;;;;3.55;3.27;;;;;;;22.44;53.78;95680.47;1785099;80;20955;-66
2022/08/05 06:42:12;;;;;;;4.83;3.83;;;;;;;22.60;53.16;95672.27;1784868;80;20994;-66
2022/08/05 06:44:38;;;;;;;6.17;3.85;;;;;;;22.77;51.63;95674.72;1785235;80;21042;-66
2022/08/05 06:47:05;;;;;;;7.40;3.75;;;;;;;22.91;51.65;95680.55;1784795;80;21011;-66
2022/08/05 06:49:32;;;;;;;7.67;3.52;;;;;;;23.08;50.42;95674.95;1785098;80;20983;-66
2022/08/05 06:51:59;;;;;;;17.10;5.62;;;;;;;23.24;50.56;95672.58;1784781;80;21011;-66
2022/08/05 06:54:25;;;;;;;7.10;3.65;;;;;;;23.42;47.92;95674.00;1785249;80;21082;-66
2022/08/05 06:56:52;;;;;;;4.05;3.30;;;;;;;23.59;48.18;95675.55;1784887;80;20964;-66
2022/08/05 06:59:19;;;;;;;5.40;3.08;;;;;;;23.76;48.32;95673.05;1784944;80;21468;-67
2022/08/05 07:01:45;;;;;;;3.72;3.25;;;;;;;23.94;47.70;95674.48;1785020;80;21484;-67
2022/08/05 07:04:12;;;;;;;5.25;3.15;;;;;;;24.11;47.13;95671.91;1785088;80;20971;-66
2022/08/05 07:06:39;;;;;;;4.90;3.27;;;;;;;24.29;47.17;95671.58;1785120;80;21042;-67
2022/08/05 07:09:05;;;;;;;6.03;3.25;;;;;;;24.44;45.66;95662.86;1784693;80;21018;-67
2022/08/05 07:11:33;;;;;;;3.75;2.62;;;;;;;24.59;46.10;95664.47;1784714;80;21820;-67
2022/08/05 07:16:49;;;;;;;3.37;3.15;;;;;;;24.84;42.70;95663.53;1785233;80;21026;-66
2022/08/05 07:19:21;;;;;;;4.65;3.08;;;;;;;25.02;44.02;95655.89;1784843;80;21516;-66
2022/08/05 07:21:49;;;;;;;3.10;2.55;;;;;;;25.18;43.17;95663.75;1781055;80;21003;-66
2022/08/05 07:24:17;;;;;;;4.53;2.90;;;;;;;25.30;43.41;95654.73;1779532;81;21480;-66
2022/08/05 07:26:45;;;;;;;4.90;4.35;;;;;;;25.44;43.07;95663.11;1779219;80;20951;-67
2022/08/05 07:29:12;;;;;;;3.20;2.90;;;;;;;25.55;42.41;95656.41;1779505;80;21011;-67
2022/08/05 07:31:40;;;;;;;3.60;2.55;;;;;;;25.66;41.79;95654.22;1779383;81;21597;-66
2022/08/05 07:34:07;;;;;;;3.52;3.12;;;;;;;25.78;41.80;95655.08;1779294;80;21007;-67
2022/08/05 07:36:34;;;;;;;2.55;2.35;;;;;;;25.90;42.31;95659.56;1779409;81;20964;-67
2022/08/05 07:39:04;;;;;;;6.03;2.70;;;;;;;26.02;40.20;95655.05;1779465;81;21515;-66
2022/08/05 07:41:30;;;;;;;3.60;2.90;;;;;;;26.14;41.07;95655.43;1779252;80;21090;-66
2022/08/05 07:43:58;;;;;;;3.60;3.30;;;;;;;26.25;40.69;95660.83;1779158;81;20999;-67
2022/08/05 07:46:28;;;;;;;4.90;3.35;;;;;;;26.43;41.22;95664.39;1779449;80;21022;-66
2022/08/05 07:48:57;;;;;;;2.83;2.62;;;;;;;26.57;40.50;95650.65;1779413;81;20979;-66
2022/08/05 07:51:24;;;;;;;4.12;2.45;;;;;;;26.71;40.46;95658.52;1779675;81;21030;-67
2022/08/05 07:53:50;;;;;;;2.92;2.72;;;;;;;26.85;39.83;95654.66;1779358;80;21033;-66
2022/08/05 07:56:17;;;;;;;3.10;2.52;;;;;;;26.96;39.32;95657.35;1779125;81;21015;-67
2022/08/05 07:58:44;;;;;;;5.60;2.60;;;;;;;27.04;38.66;95659.42;1779419;80;20998;-67
2022/08/05 08:01:10;;;;;;;2.70;2.40;;;;;;;27.12;38.26;95656.92;1779493;81;21006;-67
2022/08/05 08:03:37;;;;;;;3.30;2.90;;;;;;;27.19;37.99;95661.38;1779471;81;20988;-66
2022/08/05 08:06:04;;;;;;;4.62;2.37;;;;;;;27.28;37.51;95659.73;1779497;80;21460;-67
2022/08/05 08:08:31;;;;;;;4.12;2.80;;;;;;;27.36;37.11;95655.38;1779599;81;20999;-67
2022/08/05 08:10:57;;;;;;;3.90;2.72;;;;;;;27.52;37.73;95659.52;1779746;80;21010;-67
2022/08/05 08:13:24;;;;;;;4.12;2.60;;;;;;;27.68;37.36;95661.77;1779447;81;20984;-67
2022/08/05 08:15:51;;;;;;;4.03;2.60;;;;;;;27.77;36.65;95657.78;1779223;81;21002;-67
2022/08/05 08:18:18;;;;;;;4.85;2.70;;;;;;;27.83;36.98;95661.83;1779410;81;21019;-66
2022/08/05 08:20:44;;;;;;;4.92;2.52;;;;;;;27.92;36.89;95657.45;1779205;81;20959;-66
2022/08/05 08:23:11;;;;;;;6.53;6.00;;;;;;;28.01;36.65;95653.95;1779391;80;20993;-67
2022/08/05 08:25:38;;;;;;;3.00;2.80;;;;;;;28.18;37.04;95655.19;1779427;81;21026;-67
2022/08/05 08:28:05;;;;;;;3.98;2.58;;;;;;;28.30;35.58;95647.33;1779535;81;21019;-66
2022/08/05 08:30:32;;;;;;;2.90;2.70;;;;;;;28.31;36.10;95650.39;1778937;81;21015;-66
2022/08/05 08:32:58;;;;;;;5.03;2.50;;;;;;;28.40;35.31;95651.42;1779696;81;20987;-67
2022/08/05 08:35:25;;;;;;;2.70;2.50;;;;;;;28.52;34.96;95646.29;1779332;81;21003;-66
2022/08/05 08:37:52;;;;;;;6.00;3.10;;;;;;;28.59;33.78;95642.53;1779364;81;20982;-67
2022/08/05 08:40:19;;;;;;;2.95;2.58;;;;;;;28.69;33.70;95644.28;1779382;81;21011;-67
2022/08/05 08:42:50;;;;;;;5.33;2.45;;;;;;;28.75;33.43;95646.08;1778707;81;20991;-67
2022/08/05 08:45:20;;;;;;;6.20;2.40;;;;;;;28.81;34.23;95640.96;1779735;80;21007;-66
2022/08/05 08:47:51;;;;;;;2.58;2.17;;;;;;;28.93;33.25;95634.04;1779413;80;20987;-67
2022/08/05 08:50:21;;;;;;;2.58;2.37;;;;;;;29.04;33.48;95635.29;1779272;81;21054;-67
2022/08/05 08:52:55;;;;;;;3.67;2.30;;;;;;;29.23;32.75;95639.43;1779514;80;21449;-67
2022/08/05 08:55:22;;;;;;;2.92;2.40;;;;;;;29.33;32.35;95643.01;1779448;80;21489;-66
2022/08/05 08:57:49;;;;;;;5.72;2.70;;;;;;;29.37;32.49;95637.28;1751078;81;20998;-67
2022/08/05 09:00:16;;;;;;;4.03;2.47;;;;;;;29.43;31.46;95630.75;1779156;80;21046;-67
2022/08/05 09:02:44;;;;;;;4.97;2.33;;;;;;;29.53;32.08;95631.64;1779470;80;20987;-66
2022/08/05 09:05:11;;;;;;;6.25;2.90;;;;;;;29.67;31.88;95626.27;1779384;80;21011;-66
2022/08/05 09:07:40;;;;;;;3.45;2.98;;;;;;;29.70;30.29;95628.70;1779280;81;21560;-67
2022/08/05 09:10:08;;;;;;;12.43;2.50;;;;;;;29.91;31.95;95627.66;1751323;81;20987;-67
2022/08/05 09:12:35;;;;;;;2.50;2.30;;;;;;;30.03;30.60;95631.08;1779241;80;20960;-67
2022/08/05 09:15:06;;;;;;;3.37;2.77;;;;;;;30.12;30.61;95622.03;1751434;81;21047;-66
2022/08/05 09:17:33;;;;;;;2.60;2.40;;;;;;;30.20;30.31;95614.83;1779161;81;21030;-66
2022/08/05 09:20:01;;;;;;;3.45;2.83;;;;;;;30.31;30.40;95611.60;1779368;81;21057;-66
2022/08/05 09:22:27;;;;;;;4.45;2.83;;;;;;;30.47;31.43;95616.42;1779266;80;21019;-66
2022/08/05 09:25:00;;;;;;;4.42;2.80;;;;;;;30.59;30.32;95616.55;1779299;80;21018;-66
2022/08/05 09:27:34;;;;;;;12.35;3.25;;;;;;;30.69;28.99;95609.70;1777859;81;21048;-66
2022/08/05 09:30:01;;;;;;;3.17;2.60;;;;;;;30.71;28.98;95607.18;1778141;81;21023;-66
2022/08/05 09:32:36;;;;;;;5.42;3.10;;;;;;;30.85;29.76;95604.49;1779719;81;21003;-66
2022/08/05 09:35:13;;;;;;;6.28;2.75;;;;;;;30.97;28.37;95603.75;1779453;80;20994;-66
2022/08/05 09:37:50;;;;;;;10.25;3.20;;;;;;;30.96;28.43;95602.90;1779434;80;20974;-67
2022/08/05 09:40:36;;;;;;;7.47;2.90;;;;;;;30.98;28.83;95606.33;1776145;81;21540;-67
2022/08/05 09:43:09;;;;;;;26.52;3.17;;;;;;;31.13;29.35;95599.00;1779236;81;21039;-66
2022/08/05 09:45:39;;;;;;;7.53;2.85;;;;;;;31.13;28.90;95594.91;1778542;81;20987;-66
2022/08/05 09:48:25;;;;;;;13.55;3.17;;;;;;;31.19;28.46;95591.55;1779472;81;21031;-67
2022/08/05 09:50:57;;;;;;;4.12;2.95;;;;;;;31.21;28.20;95594.98;1779461;81;20964;-66
2022/08/05 09:53:25;;;;;;;8.35;3.58;;;;;;;31.20;27.26;95591.41;1779676;81;20995;-67
2022/08/05 09:55:59;;;;;;;11.45;3.42;;;;;;;31.16;27.54;95580.45;1751642;81;21050;-67
2022/08/05 09:58:27;;;;;;;18.67;3.40;;;;;;;31.30;28.16;95586.36;1695022;84;21474;-67
2022/08/05 10:01:05;;;;;;;15.88;3.10;;;;;;;31.44;27.83;95586.70;1662417;84;21016;-66
2022/08/05 10:03:32;;;;;;;21.73;3.50;;;;;;;31.47;27.28;95593.70;1716635;83;21477;-67
2022/08/05 10:06:08;;;;;;;32.10;4.12;;;;;;;31.58;27.72;95590.75;1716619;83;21508;-67
2022/08/05 10:08:37;;;;;;;4.08;2.98;;;;;;;31.81;27.82;95587.52;1716490;84;20987;-67
2022/08/05 10:11:08;;;;;;;18.90;4.03;;;;;;;31.85;26.58;95572.04;1716318;84;21031;-66
2022/08/05 10:13:38;;;;;;;3.20;2.80;;;;;;;31.86;26.86;95578.34;1715269;84;21015;-66
2022/08/05 10:16:07;;;;;;;2.62;2.40;;;;;;;32.05;27.70;95573.20;1716490;83;21027;-67
2022/08/05 10:18:34;;;;;;;4.47;2.60;;;;;;;32.23;27.49;95567.66;1686468;84;21496;-67
2022/08/05 10:21:05;;;;;;;3.00;2.70;;;;;;;32.36;27.34;95566.73;1686279;83;21019;-66
2022/08/05 10:23:36;;;;;;;5.00;2.43;;;;;;;32.48;26.40;95572.28;1716758;83;21027;-66
2022/08/05 10:26:07;;;;;;;4.83;2.58;;;;;;;32.58;27.27;95563.93;1716484;83;21752;-66
2022/08/05 10:28:35;;;;;;;6.15;2.85;;;;;;;32.72;26.40;95573.39;1716247;83;21031;-66
2022/08/05 10:31:02;;;;;;;5.25;2.52;;;;;;;32.88;26.55;95567.95;1716594;83;21023;-66
2022/08/05 10:33:32;;;;;;;3.15;2.52;;;;;;;33.05;26.34;95571.63;1716435;83;21043;-66
2022/08/05 10:36:02;;;;;;;3.02;2.52;;;;;;;33.20;25.91;95560.89;1716828;83;21023;-66
2022/08/05 10:38:32;;;;;;;3.05;2.70;;;;;;;33.32;26.35;95554.59;1716580;83;21071;-66
2022/08/05 10:41:23;;;;;;;20.02;4.47;;;;;;;33.51;26.23;95550.13;1716518;83;21174;-66
2022/08/05 10:44:06;;;;;;;11.75;2.98;;;;;;;33.59;25.73;95550.17;1716333;83;21059;-66
2022/08/05 10:46:49;;;;;;;;;;;;;;;33.28;24.92;95545.84;1719037;84;21016;-66
2022/08/05 10:49:16;;;;;;;5.65;2.40;;;;;;;33.33;25.18;95541.24;1716499;84;20126;-66
2022/08/05 10:51:49;;;;;;;4.30;2.50;;;;;;;33.34;25.85;95545.19;1716627;84;21027;-66
2022/08/05 10:54:17;;;;;;;4.62;2.27;;;;;;;33.50;25.50;95545.69;1716499;83;21018;-66
2022/08/05 10:56:48;;;;;;;4.42;2.52;;;;;;;33.40;24.72;95545.01;1716238;84;21158;-66
2022/08/05 10:59:28;;;;;;;2.80;2.50;;;;;;;33.41;25.05;95545.34;1716447;83;21015;-66
2022/08/05 11:02:11;;;;;;;2.83;2.62;;;;;;;33.49;25.11;95548.58;1713785;84;21019;-66
2022/08/05 11:04:47;;;;;;;26.15;4.22;;;;;;;33.71;25.08;95550.66;1716435;83;21055;-66
2022/08/05 11:07:17;;;;;;;6.75;2.75;;;;;;;33.72;24.13;95551.02;1716550;83;21026;-66
2022/08/05 11:09:50;;;;;;;5.35;2.80;;;;;;;33.73;23.96;95547.23;1716490;84;20996;-66
2022/08/05 11:12:42;;;;;;;11.03;3.40;;;;;;;33.77;24.02;95540.41;1716599;83;20995;-66
2022/08/05 11:15:33;;;;;;;6.58;2.50;;;;;;;33.68;23.71;95540.58;1716678;83;21039;-66
2022/08/05 11:18:09;;;;;;;7.50;2.58;;;;;;;33.74;23.53;95539.39;1716437;83;21027;-66
2022/08/05 11:20:44;;;;;;;5.45;2.60;;;;;;;33.85;23.82;95541.42;1693920;84;21035;-66
2022/08/05 11:23:52;;;;;;;3.87;2.70;;;;;;;33.87;23.94;95532.50;1732884;83;21504;-66
2022/08/05 11:26:22;;;;;;;2.67;2.47;;;;;;;33.97;23.82;95528.57;1706775;84;21034;-66
2022/08/05 11:28:52;;;;;;;5.25;2.67;;;;;;;34.10;24.30;95536.79;1736961;83;21034;-66
2022/08/05 11:31:29;;;;;;;5.58;2.67;;;;;;;34.32;24.05;95536.52;1706697;83;21038;-66
2022/08/05 11:34:01;;;;;;;6.97;2.50;;;;;;;34.41;23.54;95533.58;1707118;84;21006;-67
2022/08/05 11:36:47;;;;;;;4.87;2.50;;;;;;;34.55;23.76;95533.86;1736673;83;21094;-67
2022/08/05 11:39:19;;;;;;;3.37;2.58;;;;;;;34.76;23.73;95534.14;1706750;84;21026;-67
2022/08/05 11:41:51;;;;;;;2.83;2.52;;;;;;;34.70;22.21;95527.98;1695378;84;21034;-66
2022/08/05 11:44:20;;;;;;;2.70;2.50;;;;;;;34.53;22.43;95524.47;1706834;84;21007;-67
2022/08/05 11:46:52;;;;;;;2.70;2.50;;;;;;;34.63;22.52;95528.39;1706703;84;21026;-66
2022/08/05 11:49:21;;;;;;;3.45;2.50;;;;;;;34.67;23.01;95519.61;1738037;83;21062;-67